Gandsi, Mississippi
Current Conditions -  °F | °C
As of 4:55 PM on Tuesday 27 Jan 2015 (Local Time) from KPIB Reporting Station
Clear Clear  
Wind Chill: 66°   Ceiling: Unl
Heat Index: 66°   Visibility: 10mi
Dew Point: 30°   Wind: 6mph
Humidity: 26%   Direction: 330°NNW
Pressure: 30.09"   Gusts: NA
Location:  31.5166°N, 89.4877°W
Report Text: KPIB 272255Z AUTO 33005KT 10SM CLR 19/M01 A3009 RMK AO1
Loading
Personal Weather Stations






























Interactive Weather Map New forecast layout! Learn more

10-Day Weather Forecast

Advertisements
Track Severe Weather on mobile